createdAt,value
2023-07-17T00:01:55.949Z,23.16
2023-07-17T00:04:22.130Z,23.16
2023-07-17T00:06:48.277Z,23.16
2023-07-17T00:09:14.411Z,23.16
2023-07-17T00:11:40.589Z,23.15
2023-07-17T00:14:06.752Z,23.16
2023-07-17T00:16:33.055Z,23.14
2023-07-17T00:18:59.261Z,23.14
2023-07-17T00:21:25.406Z,23.13
2023-07-17T00:23:51.556Z,23.14
2023-07-17T00:26:17.721Z,23.13
2023-07-17T00:28:43.867Z,23.13
2023-07-17T00:31:10.070Z,23.14
2023-07-17T00:33:36.232Z,23.13
2023-07-17T00:36:02.377Z,23.13
2023-07-17T00:38:28.529Z,23.13
2023-07-17T00:40:54.717Z,23.12
2023-07-17T00:43:20.862Z,23.13
2023-07-17T00:45:47.027Z,23.12
2023-07-17T00:48:13.783Z,23.12
2023-07-17T00:50:39.953Z,23.12
2023-07-17T00:53:06.129Z,23.12
2023-07-17T00:55:32.773Z,23.11
2023-07-17T00:57:58.924Z,23.10
2023-07-17T01:00:25.115Z,23.10
2023-07-17T01:02:51.425Z,23.11
2023-07-17T01:05:17.624Z,23.11
2023-07-17T01:07:43.791Z,23.09
2023-07-17T01:10:09.981Z,23.10
2023-07-17T01:12:36.158Z,23.09
2023-07-17T01:15:02.330Z,23.09
2023-07-17T01:17:28.517Z,23.09
2023-07-17T01:19:54.713Z,23.08
2023-07-17T01:22:20.854Z,23.07
2023-07-17T01:24:47.013Z,23.07
2023-07-17T01:27:13.148Z,23.07
2023-07-17T01:29:39.320Z,23.06
2023-07-17T01:32:05.500Z,23.07
2023-07-17T01:34:31.688Z,23.06
2023-07-17T01:36:57.818Z,23.07
2023-07-17T01:39:23.981Z,23.06
2023-07-17T01:41:50.148Z,23.05
2023-07-17T01:44:16.287Z,23.06
2023-07-17T01:46:42.529Z,23.04
2023-07-17T01:49:08.722Z,23.04
2023-07-17T01:51:34.873Z,23.03
2023-07-17T01:54:01.182Z,23.03
2023-07-17T01:56:27.329Z,23.04
2023-07-17T01:58:53.462Z,23.03
2023-07-17T02:01:20.425Z,23.02
2023-07-17T02:03:46.848Z,23.03
2023-07-17T02:06:12.995Z,23.02
2023-07-17T02:08:39.227Z,23.02
2023-07-17T02:11:05.421Z,23.02
2023-07-17T02:13:31.563Z,23.02
2023-07-17T02:15:57.823Z,23.01
2023-07-17T02:18:24.140Z,23.01
2023-07-17T02:20:50.298Z,23.01
2023-07-17T02:23:16.497Z,23.00
2023-07-17T02:25:42.659Z,23.00
2023-07-17T02:28:08.932Z,22.99
2023-07-17T02:30:35.112Z,23.00
2023-07-17T02:33:01.294Z,22.97
2023-07-17T02:35:27.589Z,22.97
2023-07-17T02:37:53.761Z,22.97
2023-07-17T02:40:19.918Z,22.97
2023-07-17T02:42:46.138Z,22.96
2023-07-17T02:45:12.314Z,22.96
2023-07-17T02:47:38.503Z,22.95
2023-07-17T02:50:04.729Z,22.96
2023-07-17T02:52:30.910Z,22.96
2023-07-17T02:54:57.066Z,22.95
2023-07-17T02:57:23.218Z,22.95
2023-07-17T02:59:49.387Z,22.94
2023-07-17T03:02:15.535Z,22.93
2023-07-17T03:04:41.675Z,22.93
2023-07-17T03:07:07.876Z,22.93
2023-07-17T03:09:34.006Z,22.93
2023-07-17T03:12:00.174Z,22.93
2023-07-17T03:14:26.353Z,22.92
2023-07-17T03:16:52.540Z,22.93
2023-07-17T03:19:18.666Z,22.92
2023-07-17T03:21:44.833Z,22.92
2023-07-17T03:24:10.982Z,22.91
2023-07-17T03:26:37.304Z,22.90
2023-07-17T03:29:03.529Z,22.90
2023-07-17T03:31:29.716Z,22.90
2023-07-17T03:33:55.971Z,22.89
2023-07-17T03:36:22.193Z,22.89
2023-07-17T03:38:48.395Z,22.88
2023-07-17T03:41:14.544Z,22.89
2023-07-17T03:43:40.703Z,22.90
2023-07-17T03:46:06.868Z,22.89
2023-07-17T03:48:33.016Z,22.89
2023-07-17T03:51:01.890Z,22.89
2023-07-17T03:53:29.586Z,22.89
2023-07-17T03:55:55.737Z,22.87
2023-07-17T03:58:22.440Z,22.87
2023-07-17T04:00:48.834Z,22.87
2023-07-17T04:03:15.155Z,22.87
2023-07-17T04:05:42.081Z,22.86
2023-07-17T04:08:08.402Z,22.87
2023-07-17T04:10:34.673Z,22.86
2023-07-17T04:13:00.989Z,22.85
2023-07-17T04:15:27.138Z,22.85
2023-07-17T04:17:53.331Z,22.85
2023-07-17T04:20:19.526Z,22.85
2023-07-17T04:22:45.704Z,22.84
2023-07-17T04:25:11.880Z,22.83
2023-07-17T04:27:38.069Z,22.83
2023-07-17T04:30:04.212Z,22.84
2023-07-17T04:32:30.436Z,22.83
2023-07-17T04:34:56.637Z,22.83
2023-07-17T04:37:22.941Z,22.83
2023-07-17T04:39:49.104Z,22.82
2023-07-17T04:42:15.251Z,22.80
2023-07-17T04:44:41.440Z,22.80
2023-07-17T04:47:07.749Z,22.81
2023-07-17T04:49:33.962Z,22.80
2023-07-17T04:52:00.159Z,22.81
2023-07-17T04:54:26.324Z,22.80
2023-07-17T04:56:52.594Z,22.80
2023-07-17T04:59:18.734Z,22.81
2023-07-17T05:01:44.876Z,22.79
2023-07-17T05:04:11.107Z,22.78
2023-07-17T05:06:37.307Z,22.79
2023-07-17T05:09:03.458Z,22.79
2023-07-17T05:11:29.669Z,22.77
2023-07-17T05:13:55.814Z,22.77
2023-07-17T05:16:21.987Z,22.77
2023-07-17T05:18:48.153Z,22.77
2023-07-17T05:21:14.316Z,22.77
2023-07-17T05:23:40.491Z,22.77
2023-07-17T05:26:06.912Z,22.75
2023-07-17T05:28:33.819Z,22.75
2023-07-17T05:31:00.050Z,22.74
2023-07-17T05:33:26.263Z,22.75
2023-07-17T05:35:52.420Z,22.74
2023-07-17T05:38:18.592Z,22.74
2023-07-17T05:40:44.817Z,22.73
2023-07-17T05:43:10.991Z,22.72
2023-07-17T05:45:37.132Z,22.73
2023-07-17T05:48:03.345Z,22.71
2023-07-17T05:50:29.512Z,22.71
2023-07-17T05:52:55.667Z,22.71
2023-07-17T05:55:21.824Z,22.70
2023-07-17T05:57:47.983Z,22.70
2023-07-17T06:00:14.143Z,22.71
2023-07-17T06:02:40.953Z,22.70
2023-07-17T06:05:07.200Z,22.69
2023-07-17T06:07:33.408Z,22.71
2023-07-17T06:09:59.578Z,22.68
2023-07-17T06:12:25.757Z,22.69
2023-07-17T06:14:51.907Z,22.68
2023-07-17T06:17:18.068Z,22.68
2023-07-17T06:19:44.227Z,22.68
2023-07-17T06:22:10.394Z,22.68
2023-07-17T06:24:36.853Z,22.67
2023-07-17T06:27:03.002Z,22.68
2023-07-17T06:29:29.175Z,22.67
2023-07-17T06:31:55.370Z,22.68
2023-07-17T06:34:21.551Z,22.66
2023-07-17T06:36:47.720Z,22.67
2023-07-17T06:39:13.916Z,22.66
2023-07-17T06:41:40.061Z,22.67
2023-07-17T06:44:06.212Z,22.66
2023-07-17T06:46:32.459Z,22.66
2023-07-17T06:48:58.627Z,22.65
2023-07-17T06:51:24.873Z,22.66
2023-07-17T06:53:51.067Z,22.67
2023-07-17T06:56:17.453Z,22.65
2023-07-17T06:58:43.754Z,22.66
2023-07-17T07:01:09.919Z,22.64
2023-07-17T07:03:36.107Z,22.65
2023-07-17T07:06:02.273Z,22.65
2023-07-17T07:08:28.437Z,22.66
2023-07-17T07:10:54.587Z,22.65
2023-07-17T07:13:20.736Z,22.65
2023-07-17T07:15:46.959Z,22.64
2023-07-17T07:18:13.150Z,22.64
2023-07-17T07:20:39.382Z,22.64
2023-07-17T07:23:05.589Z,22.63
2023-07-17T07:25:31.756Z,22.64
2023-07-17T07:27:57.884Z,22.65
2023-07-17T07:30:24.052Z,22.64
2023-07-17T07:32:50.202Z,22.63
2023-07-17T07:35:16.440Z,22.63
2023-07-17T07:37:42.649Z,22.63
2023-07-17T07:40:08.796Z,22.64
2023-07-17T07:42:34.943Z,22.63
2023-07-17T07:45:01.117Z,22.64
2023-07-17T07:47:27.301Z,22.64
2023-07-17T07:49:53.503Z,22.64
2023-07-17T07:52:19.680Z,22.62
2023-07-17T07:54:45.994Z,22.63
2023-07-17T07:57:12.221Z,22.63
2023-07-17T07:59:38.922Z,22.63
2023-07-17T08:02:05.324Z,22.63
2023-07-17T08:04:31.526Z,22.63
2023-07-17T08:06:57.679Z,22.63
2023-07-17T08:09:23.867Z,22.64
2023-07-17T08:11:50.050Z,22.64
2023-07-17T08:14:16.217Z,22.63
2023-07-17T08:16:42.430Z,22.62
2023-07-17T08:19:08.644Z,22.62
2023-07-17T08:21:35.384Z,22.63
2023-07-17T08:24:01.610Z,22.63
2023-07-17T08:26:28.223Z,22.62
2023-07-17T08:28:54.671Z,22.62
2023-07-17T08:31:20.847Z,22.62
2023-07-17T08:33:47.057Z,22.61
2023-07-17T08:36:13.336Z,22.63
2023-07-17T08:38:39.488Z,22.63
2023-07-17T08:41:05.661Z,22.61
2023-07-17T08:43:31.834Z,22.62
2023-07-17T08:46:00.381Z,22.62
2023-07-17T08:48:27.123Z,22.61
2023-07-17T08:50:53.296Z,22.61
2023-07-17T08:53:19.457Z,22.62
2023-07-17T08:55:45.629Z,22.62
2023-07-17T08:58:11.841Z,22.61
2023-07-17T09:00:38.066Z,22.61
2023-07-17T09:03:04.334Z,22.61
2023-07-17T09:05:31.158Z,22.61
2023-07-17T09:07:57.357Z,22.60
2023-07-17T09:10:23.517Z,22.61
2023-07-17T09:12:49.693Z,22.61
2023-07-17T09:15:15.855Z,22.61
2023-07-17T09:17:42.020Z,22.61
2023-07-17T09:20:08.218Z,22.61
2023-07-17T09:22:34.475Z,22.62
2023-07-17T09:25:00.674Z,22.62
2023-07-17T09:27:26.851Z,22.62
2023-07-17T09:29:52.990Z,22.62
2023-07-17T09:32:19.140Z,22.63
2023-07-17T09:34:45.327Z,22.63
2023-07-17T09:37:11.483Z,22.63
2023-07-17T09:39:37.642Z,22.63
2023-07-17T09:42:03.839Z,22.63
2023-07-17T09:44:29.984Z,22.64
2023-07-17T09:46:56.173Z,22.64
2023-07-17T09:49:22.401Z,22.64
2023-07-17T09:51:48.554Z,22.64
2023-07-17T09:54:14.727Z,22.64
2023-07-17T09:56:40.904Z,22.65
2023-07-17T09:59:07.067Z,22.64
2023-07-17T10:01:33.311Z,22.65
2023-07-17T10:03:59.535Z,22.65
2023-07-17T10:06:25.762Z,22.65
2023-07-17T10:08:51.926Z,22.65
2023-07-17T10:11:18.866Z,22.65
2023-07-17T10:13:45.252Z,22.65
2023-07-17T10:16:11.418Z,22.66
2023-07-17T10:18:37.570Z,22.65
2023-07-17T10:21:03.713Z,22.66
2023-07-17T10:23:29.857Z,22.64
2023-07-17T10:25:56.492Z,22.66
2023-07-17T10:28:22.630Z,22.67
2023-07-17T10:30:48.867Z,22.66
2023-07-17T10:33:15.252Z,22.67
2023-07-17T10:35:41.525Z,22.66
2023-07-17T10:38:07.674Z,22.67
2023-07-17T10:40:33.854Z,22.67
2023-07-17T10:43:00.084Z,22.67
2023-07-17T10:45:26.262Z,22.66
2023-07-17T10:47:53.238Z,22.66
2023-07-17T10:50:19.610Z,22.67
2023-07-17T10:52:45.938Z,22.66
2023-07-17T10:55:12.119Z,22.66
2023-07-17T10:57:38.263Z,22.68
2023-07-17T11:00:04.420Z,22.68
2023-07-17T11:02:30.600Z,22.68
2023-07-17T11:04:56.781Z,22.69
2023-07-17T11:07:22.953Z,22.68
2023-07-17T11:09:49.113Z,22.68
2023-07-17T11:12:15.266Z,22.68
2023-07-17T11:14:41.394Z,22.68
2023-07-17T11:17:07.699Z,22.68
2023-07-17T11:19:33.867Z,22.68
2023-07-17T11:22:00.030Z,22.69
2023-07-17T11:24:26.188Z,22.68
2023-07-17T11:26:52.365Z,22.68
2023-07-17T11:29:18.555Z,22.69
2023-07-17T11:31:45.226Z,22.69
2023-07-17T11:34:11.543Z,22.68
2023-07-17T11:36:37.866Z,22.67
2023-07-17T11:39:04.021Z,22.70
2023-07-17T11:41:30.163Z,22.69
2023-07-17T11:43:56.295Z,22.68
2023-07-17T11:46:22.495Z,22.69
2023-07-17T11:48:48.682Z,22.68
2023-07-17T11:51:14.881Z,22.68
2023-07-17T11:53:41.075Z,22.70
2023-07-17T11:56:07.246Z,22.68
2023-07-17T11:58:33.404Z,22.68
2023-07-17T12:00:59.589Z,22.70
2023-07-17T12:03:25.902Z,22.69
2023-07-17T12:05:52.220Z,22.70
2023-07-17T12:08:18.397Z,22.70
2023-07-17T12:10:44.547Z,22.69
2023-07-17T12:13:10.698Z,22.69
2023-07-17T12:15:36.986Z,22.69
2023-07-17T12:18:03.192Z,22.69
2023-07-17T12:20:29.456Z,22.69
2023-07-17T12:22:55.640Z,22.70
2023-07-17T12:25:21.816Z,22.69
2023-07-17T12:27:47.961Z,22.70
2023-07-17T12:30:14.168Z,22.69
2023-07-17T12:32:40.358Z,22.69
2023-07-17T12:35:06.511Z,22.68
2023-07-17T12:37:32.680Z,22.69
2023-07-17T12:39:58.837Z,22.69
2023-07-17T12:42:24.973Z,22.69
2023-07-17T12:44:51.160Z,22.69
2023-07-17T12:47:17.308Z,22.69
2023-07-17T12:49:43.454Z,22.69
2023-07-17T12:52:09.642Z,22.69
2023-07-17T12:54:35.789Z,22.69
2023-07-17T12:57:01.963Z,22.69
2023-07-17T12:59:28.124Z,22.69
2023-07-17T13:01:54.325Z,22.70
2023-07-17T13:04:20.470Z,22.70
2023-07-17T13:06:46.635Z,22.70
2023-07-17T13:09:12.787Z,22.71
2023-07-17T13:11:38.946Z,22.70
2023-07-17T13:14:05.118Z,22.71
2023-07-17T13:16:31.322Z,22.71
2023-07-17T13:18:57.576Z,22.70
2023-07-17T13:21:24.291Z,22.71
2023-07-17T13:23:50.443Z,22.71
2023-07-17T13:26:16.574Z,22.71
2023-07-17T13:28:42.763Z,22.71
2023-07-17T13:31:24.104Z,22.71
2023-07-17T13:33:50.511Z,22.72
2023-07-17T13:36:16.660Z,22.73
2023-07-17T13:38:42.818Z,22.72
2023-07-17T13:41:09.067Z,22.72
2023-07-17T13:43:35.246Z,22.72
2023-07-17T13:46:01.395Z,22.73
2023-07-17T13:48:27.567Z,22.73
2023-07-17T13:50:53.724Z,22.73
2023-07-17T13:53:19.933Z,22.72
2023-07-17T13:55:46.124Z,22.73
2023-07-17T13:58:15.858Z,22.73
2023-07-17T14:00:42.507Z,22.73
2023-07-17T14:03:09.169Z,22.73
2023-07-17T14:05:35.364Z,22.74
2023-07-17T14:08:01.516Z,22.75
2023-07-17T14:10:27.694Z,22.75
2023-07-17T14:12:53.867Z,22.75
2023-07-17T14:15:22.102Z,22.76
2023-07-17T14:17:48.337Z,22.76
2023-07-17T14:20:14.642Z,22.77
2023-07-17T14:22:40.855Z,22.76
2023-07-17T14:25:07.032Z,22.76
2023-07-17T14:27:33.180Z,22.76
2023-07-17T14:29:59.346Z,22.76
2023-07-17T14:32:25.554Z,22.77
2023-07-17T14:34:51.732Z,22.77
2023-07-17T14:37:17.894Z,22.78
2023-07-17T14:39:44.086Z,22.79
2023-07-17T14:42:10.293Z,22.79
2023-07-17T14:44:36.489Z,22.78
2023-07-17T14:47:02.676Z,22.78
2023-07-17T14:49:28.828Z,22.79
2023-07-17T14:51:54.977Z,22.80
2023-07-17T14:54:21.134Z,22.80
2023-07-17T14:56:47.283Z,22.80
2023-07-17T14:59:13.466Z,22.80
2023-07-17T15:01:39.659Z,22.80
2023-07-17T15:04:05.891Z,22.80
2023-07-17T15:06:32.117Z,22.80
2023-07-17T15:08:58.321Z,22.81
2023-07-17T15:11:24.481Z,22.82
2023-07-17T15:13:50.632Z,22.82
2023-07-17T15:16:16.948Z,22.82
2023-07-17T15:18:44.587Z,22.82
2023-07-17T15:21:11.030Z,22.82
2023-07-17T15:23:37.231Z,22.82
2023-07-17T15:26:03.374Z,22.83
2023-07-17T15:28:29.542Z,22.83
2023-07-17T15:30:55.831Z,22.83
2023-07-17T15:33:22.018Z,22.83
2023-07-17T15:35:48.157Z,22.84
2023-07-17T15:38:14.325Z,22.83
2023-07-17T15:40:40.495Z,22.84
2023-07-17T15:43:06.872Z,22.84
2023-07-17T15:45:33.160Z,22.83
2023-07-17T15:47:59.389Z,22.84
2023-07-17T15:50:25.591Z,22.83
2023-07-17T15:52:51.783Z,22.83
2023-07-17T15:55:17.974Z,22.83
2023-07-17T15:57:44.119Z,22.84
2023-07-17T16:00:10.276Z,22.85
2023-07-17T16:02:36.424Z,22.84
2023-07-17T16:05:02.646Z,22.84
2023-07-17T16:07:28.870Z,22.85
2023-07-17T16:09:55.033Z,22.84
2023-07-17T16:12:23.917Z,22.84
2023-07-17T16:14:50.423Z,22.83
2023-07-17T16:17:16.592Z,22.84
2023-07-17T16:19:42.739Z,22.84
2023-07-17T16:22:08.910Z,22.83
2023-07-17T16:24:35.071Z,22.82
2023-07-17T16:27:01.218Z,22.83
2023-07-17T16:29:27.383Z,22.82
2023-07-17T16:31:53.526Z,22.82
2023-07-17T16:34:19.804Z,22.83
2023-07-17T16:36:46.003Z,22.82
2023-07-17T16:39:12.179Z,22.82
2023-07-17T16:41:38.451Z,22.83
2023-07-17T16:44:04.672Z,22.82
2023-07-17T16:46:30.861Z,22.82
2023-07-17T16:48:57.059Z,22.83
2023-07-17T16:51:23.276Z,22.83
2023-07-17T16:53:49.446Z,22.83
2023-07-17T16:56:15.769Z,22.82
2023-07-17T16:58:42.099Z,22.82
2023-07-17T17:01:08.277Z,22.83
2023-07-17T17:03:34.561Z,22.82
2023-07-17T17:06:00.856Z,22.82
2023-07-17T17:08:27.008Z,22.81
2023-07-17T17:10:53.141Z,22.81
2023-07-17T17:13:19.477Z,22.82
2023-07-17T17:15:46.182Z,22.80
2023-07-17T17:18:12.480Z,22.80
2023-07-17T17:20:38.739Z,22.80
2023-07-17T17:23:04.963Z,22.79
2023-07-17T17:25:31.195Z,22.79
2023-07-17T17:27:57.365Z,22.79
2023-07-17T17:30:23.515Z,22.78
2023-07-17T17:32:49.692Z,22.79
2023-07-17T17:35:16.456Z,22.79
2023-07-17T17:37:42.586Z,22.80
2023-07-17T17:40:08.716Z,22.80
2023-07-17T17:42:34.885Z,22.79
2023-07-17T17:45:01.049Z,22.80
2023-07-17T17:47:27.261Z,22.79
2023-07-17T17:49:53.571Z,22.79
2023-07-17T17:52:19.792Z,22.79
2023-07-17T17:54:45.948Z,22.79
2023-07-17T17:57:12.127Z,22.79
2023-07-17T17:59:38.298Z,22.77
2023-07-17T18:02:04.445Z,22.78
2023-07-17T18:04:30.870Z,22.78
2023-07-17T18:06:57.121Z,22.78
2023-07-17T18:09:23.275Z,22.77
2023-07-17T18:11:49.434Z,22.78
2023-07-17T18:14:15.570Z,22.77
2023-07-17T18:16:41.775Z,22.77
2023-07-17T18:19:08.006Z,22.76
2023-07-17T18:21:34.153Z,22.77
2023-07-17T18:24:00.301Z,22.76
2023-07-17T18:26:26.475Z,22.76
2023-07-17T18:28:52.622Z,22.75
2023-07-17T18:31:19.108Z,22.76
2023-07-17T18:33:45.474Z,22.76
2023-07-17T18:36:11.626Z,22.76
2023-07-17T18:38:37.793Z,22.76
2023-07-17T18:41:04.164Z,22.76
2023-07-17T18:43:30.332Z,22.76
2023-07-17T18:45:57.801Z,22.77
2023-07-17T18:48:26.424Z,22.76
2023-07-17T18:50:54.392Z,22.75
2023-07-17T18:53:20.546Z,22.75
2023-07-17T18:55:46.758Z,22.75
2023-07-17T18:58:12.925Z,22.74
2023-07-17T19:00:39.078Z,22.75
2023-07-17T19:03:05.309Z,22.73
2023-07-17T19:05:31.464Z,22.73
2023-07-17T19:07:57.637Z,22.74
2023-07-17T19:10:23.801Z,22.74
2023-07-17T19:12:49.975Z,22.73
2023-07-17T19:15:16.158Z,22.73
2023-07-17T19:17:42.394Z,22.73
2023-07-17T19:20:08.578Z,22.73
2023-07-17T19:22:34.815Z,22.72
2023-07-17T19:25:01.035Z,22.72
2023-07-17T19:27:27.212Z,22.72
2023-07-17T19:29:53.361Z,22.72
2023-07-17T19:32:19.527Z,22.72
2023-07-17T19:34:45.691Z,22.73
2023-07-17T19:37:11.851Z,22.71
2023-07-17T19:39:38.071Z,22.71
2023-07-17T19:42:04.241Z,22.71
2023-07-17T19:44:30.426Z,22.70
2023-07-17T19:46:56.600Z,22.71
2023-07-17T19:49:22.749Z,22.71
2023-07-17T19:51:48.915Z,22.70
2023-07-17T19:54:15.088Z,22.70
2023-07-17T19:56:41.238Z,22.70
2023-07-17T19:59:07.401Z,22.70
2023-07-17T20:01:33.689Z,22.70
2023-07-17T20:03:59.998Z,22.71
2023-07-17T20:06:26.251Z,22.69
2023-07-17T20:08:52.459Z,22.69
2023-07-17T20:11:18.856Z,22.69
2023-07-17T20:13:45.296Z,22.69
2023-07-17T20:16:11.517Z,22.69
2023-07-17T20:18:37.731Z,22.68
2023-07-17T20:21:03.927Z,22.69
2023-07-17T20:23:30.099Z,22.69
2023-07-17T20:25:56.258Z,22.69
2023-07-17T20:28:22.414Z,22.67
2023-07-17T20:30:48.660Z,22.66
2023-07-17T20:33:14.835Z,22.67
2023-07-17T20:35:41.066Z,22.68
2023-07-17T20:38:07.217Z,22.66
2023-07-17T20:40:33.520Z,22.67
2023-07-17T20:42:59.733Z,22.67
2023-07-17T20:45:25.924Z,22.67
2023-07-17T20:47:52.093Z,22.66
2023-07-17T20:50:18.278Z,22.65
2023-07-17T20:52:44.472Z,22.66
2023-07-17T20:55:10.617Z,22.66
2023-07-17T20:57:36.875Z,22.67
2023-07-17T21:00:03.079Z,22.65
2023-07-17T21:02:29.273Z,22.64
2023-07-17T21:04:55.443Z,22.65
2023-07-17T21:07:21.603Z,22.64
2023-07-17T21:09:47.733Z,22.64
2023-07-17T21:12:13.908Z,22.63
2023-07-17T21:14:40.099Z,22.64
2023-07-17T21:17:06.282Z,22.63
2023-07-17T21:19:32.458Z,22.63
2023-07-17T21:21:58.628Z,22.63
2023-07-17T21:24:24.803Z,22.62
2023-07-17T21:26:50.973Z,22.63
2023-07-17T21:29:17.138Z,22.62
2023-07-17T21:31:43.345Z,22.62
2023-07-17T21:34:09.525Z,22.61
2023-07-17T21:36:35.694Z,22.61
2023-07-17T21:39:01.863Z,22.61
2023-07-17T21:41:28.030Z,22.61
2023-07-17T21:43:54.197Z,22.59
2023-07-17T21:46:20.363Z,22.61
2023-07-17T21:48:46.526Z,22.60
2023-07-17T21:51:13.264Z,22.59
2023-07-17T21:53:39.437Z,22.59
2023-07-17T21:56:05.583Z,22.58
2023-07-17T21:58:33.829Z,22.58
2023-07-17T22:00:59.998Z,22.58
2023-07-17T22:03:26.325Z,22.58
2023-07-17T22:05:53.103Z,22.58
2023-07-17T22:08:19.242Z,22.58
2023-07-17T22:10:45.389Z,22.57
2023-07-17T22:13:12.289Z,22.58
2023-07-17T22:15:39.385Z,22.55
2023-07-17T22:18:19.292Z,22.55
2023-07-17T22:20:51.671Z,22.55
2023-07-17T22:23:17.824Z,22.55
2023-07-17T22:25:43.969Z,22.56
2023-07-17T22:28:10.131Z,22.54
2023-07-17T22:30:36.337Z,22.54
2023-07-17T22:33:02.623Z,22.54
2023-07-17T22:35:28.800Z,22.54
2023-07-17T22:37:54.975Z,22.54
2023-07-17T22:40:21.122Z,22.53
2023-07-17T22:42:47.344Z,22.53
2023-07-17T22:45:13.502Z,22.52
2023-07-17T22:47:39.696Z,22.53
2023-07-17T22:50:05.850Z,22.52
2023-07-17T22:52:32.013Z,22.51
2023-07-17T22:54:58.228Z,22.52
2023-07-17T22:57:24.417Z,22.51
2023-07-17T22:59:50.545Z,22.51
2023-07-17T23:02:16.897Z,22.50
2023-07-17T23:04:43.294Z,22.50
2023-07-17T23:07:09.558Z,22.48
2023-07-17T23:09:35.719Z,22.49
2023-07-17T23:12:02.417Z,22.49
2023-07-17T23:14:28.596Z,22.48
2023-07-17T23:16:54.759Z,22.48
2023-07-17T23:19:21.028Z,22.48
2023-07-17T23:21:47.173Z,22.47
2023-07-17T23:24:13.339Z,22.47
2023-07-17T23:26:39.498Z,22.46
2023-07-17T23:29:05.654Z,22.46
2023-07-17T23:31:31.846Z,22.46
2023-07-17T23:33:58.100Z,22.46
2023-07-17T23:36:24.280Z,22.45
2023-07-17T23:38:50.428Z,22.45
2023-07-17T23:41:16.775Z,22.45
2023-07-17T23:43:43.068Z,22.44
2023-07-17T23:46:09.302Z,22.44
2023-07-17T23:48:35.491Z,22.45
2023-07-17T23:51:01.680Z,22.43
2023-07-17T23:53:27.848Z,22.43
2023-07-17T23:55:54.974Z,22.43
2023-07-17T23:58:21.131Z,22.42
